sensor_id;sensor_type;location;lat;lon;timestamp;P1;durP1;ratioP1;P2;durP2;ratioP2
16137;SDS011;8174;43.550;5.206;2022-08-21T00:00:09;2.60;;;0.60;;
16137;SDS011;8174;43.550;5.206;2022-08-21T00:02:43;1.92;;;0.70;;
16137;SDS011;8174;43.550;5.206;2022-08-21T00:05:12;0.95;;;0.70;;
16137;SDS011;8174;43.550;5.206;2022-08-21T00:07:40;1.25;;;0.68;;
16137;SDS011;8174;43.550;5.206;2022-08-21T00:10:08;1.15;;;0.65;;
16137;SDS011;8174;43.550;5.206;2022-08-21T00:12:35;0.82;;;0.70;;
16137;SDS011;8174;43.550;5.206;2022-08-21T00:15:04;1.30;;;0.80;;
16137;SDS011;8174;43.550;5.206;2022-08-21T00:17:31;1.88;;;0.70;;
16137;SDS011;8174;43.550;5.206;2022-08-21T00:19:59;1.88;;;0.70;;
16137;SDS011;8174;43.550;5.206;2022-08-21T00:22:28;2.75;;;0.90;;
16137;SDS011;8174;43.550;5.206;2022-08-21T00:24:55;1.38;;;0.60;;
16137;SDS011;8174;43.550;5.206;2022-08-21T00:27:23;2.30;;;0.60;;
16137;SDS011;8174;43.550;5.206;2022-08-21T00:29:50;1.85;;;0.60;;
16137;SDS011;8174;43.550;5.206;2022-08-21T00:32:22;0.70;;;0.70;;
16137;SDS011;8174;43.550;5.206;2022-08-21T00:34:49;2.17;;;0.70;;
16137;SDS011;8174;43.550;5.206;2022-08-21T00:37:17;1.00;;;0.70;;
16137;SDS011;8174;43.550;5.206;2022-08-21T00:39:46;1.63;;;0.88;;
16137;SDS011;8174;43.550;5.206;2022-08-21T00:42:14;1.77;;;0.70;;
16137;SDS011;8174;43.550;5.206;2022-08-21T00:44:42;0.90;;;0.68;;
16137;SDS011;8174;43.550;5.206;2022-08-21T00:47:09;4.93;;;1.20;;
16137;SDS011;8174;43.550;5.206;2022-08-21T00:49:37;1.55;;;0.80;;
16137;SDS011;8174;43.550;5.206;2022-08-21T00:52:06;1.70;;;0.80;;
16137;SDS011;8174;43.550;5.206;2022-08-21T00:54:34;1.60;;;0.77;;
16137;SDS011;8174;43.550;5.206;2022-08-21T00:57:04;2.25;;;0.60;;
16137;SDS011;8174;43.550;5.206;2022-08-21T00:59:35;1.05;;;0.60;;
16137;SDS011;8174;43.550;5.206;2022-08-21T01:02:04;1.20;;;0.80;;
16137;SDS011;8174;43.550;5.206;2022-08-21T01:04:32;1.55;;;0.68;;
16137;SDS011;8174;43.550;5.206;2022-08-21T01:06:59;0.85;;;0.70;;
16137;SDS011;8174;43.550;5.206;2022-08-21T01:09:27;3.38;;;0.63;;
16137;SDS011;8174;43.550;5.206;2022-08-21T01:11:55;0.77;;;0.70;;
16137;SDS011;8174;43.550;5.206;2022-08-21T01:14:24;1.73;;;0.80;;
16137;SDS011;8174;43.550;5.206;2022-08-21T01:16:53;1.90;;;0.80;;
16137;SDS011;8174;43.550;5.206;2022-08-21T01:19:22;0.70;;;0.70;;
16137;SDS011;8174;43.550;5.206;2022-08-21T01:21:52;1.00;;;0.70;;
16137;SDS011;8174;43.550;5.206;2022-08-21T01:24:20;2.60;;;0.80;;
16137;SDS011;8174;43.550;5.206;2022-08-21T01:26:48;1.65;;;0.80;;
16137;SDS011;8174;43.550;5.206;2022-08-21T01:29:25;1.65;;;0.80;;
16137;SDS011;8174;43.550;5.206;2022-08-21T01:31:54;2.72;;;0.73;;
16137;SDS011;8174;43.550;5.206;2022-08-21T01:34:22;0.90;;;0.80;;
16137;SDS011;8174;43.550;5.206;2022-08-21T01:36:52;2.65;;;0.88;;
16137;SDS011;8174;43.550;5.206;2022-08-21T01:39:20;2.38;;;0.90;;
16137;SDS011;8174;43.550;5.206;2022-08-21T01:41:48;1.40;;;1.23;;
16137;SDS011;8174;43.550;5.206;2022-08-21T01:44:16;2.60;;;0.82;;
16137;SDS011;8174;43.550;5.206;2022-08-21T01:46:47;0.90;;;0.80;;
16137;SDS011;8174;43.550;5.206;2022-08-21T01:49:15;1.05;;;0.70;;
16137;SDS011;8174;43.550;5.206;2022-08-21T01:51:43;2.83;;;0.88;;
16137;SDS011;8174;43.550;5.206;2022-08-21T01:54:13;0.95;;;0.80;;
16137;SDS011;8174;43.550;5.206;2022-08-21T01:56:41;0.98;;;0.80;;
16137;SDS011;8174;43.550;5.206;2022-08-21T01:59:11;0.73;;;0.70;;
16137;SDS011;8174;43.550;5.206;2022-08-21T02:01:38;2.70;;;0.93;;
16137;SDS011;8174;43.550;5.206;2022-08-21T02:04:06;1.30;;;0.90;;
16137;SDS011;8174;43.550;5.206;2022-08-21T02:06:34;1.33;;;0.95;;
16137;SDS011;8174;43.550;5.206;2022-08-21T02:09:02;0.82;;;0.60;;
16137;SDS011;8174;43.550;5.206;2022-08-21T02:11:31;0.75;;;0.70;;
16137;SDS011;8174;43.550;5.206;2022-08-21T02:13:59;1.02;;;0.75;;
16137;SDS011;8174;43.550;5.206;2022-08-21T02:16:28;3.80;;;0.80;;
16137;SDS011;8174;43.550;5.206;2022-08-21T02:18:55;1.67;;;0.75;;
16137;SDS011;8174;43.550;5.206;2022-08-21T02:21:22;3.05;;;0.85;;
16137;SDS011;8174;43.550;5.206;2022-08-21T02:23:50;1.60;;;0.85;;
16137;SDS011;8174;43.550;5.206;2022-08-21T02:26:18;1.48;;;0.75;;
16137;SDS011;8174;43.550;5.206;2022-08-21T02:28:48;1.20;;;0.82;;
16137;SDS011;8174;43.550;5.206;2022-08-21T02:31:16;2.92;;;0.93;;
16137;SDS011;8174;43.550;5.206;2022-08-21T02:33:43;3.03;;;0.90;;
16137;SDS011;8174;43.550;5.206;2022-08-21T02:36:12;0.80;;;0.80;;
16137;SDS011;8174;43.550;5.206;2022-08-21T02:38:40;1.83;;;0.80;;
16137;SDS011;8174;43.550;5.206;2022-08-21T02:41:12;2.30;;;0.95;;
16137;SDS011;8174;43.550;5.206;2022-08-21T02:43:40;2.45;;;0.70;;
16137;SDS011;8174;43.550;5.206;2022-08-21T02:46:10;2.85;;;1.05;;
16137;SDS011;8174;43.550;5.206;2022-08-21T02:48:38;2.67;;;0.90;;
16137;SDS011;8174;43.550;5.206;2022-08-21T02:51:07;2.22;;;0.80;;
16137;SDS011;8174;43.550;5.206;2022-08-21T02:53:35;1.25;;;0.70;;
16137;SDS011;8174;43.550;5.206;2022-08-21T02:56:03;1.27;;;0.70;;
16137;SDS011;8174;43.550;5.206;2022-08-21T02:58:32;1.63;;;0.82;;
16137;SDS011;8174;43.550;5.206;2022-08-21T03:01:00;0.98;;;0.88;;
16137;SDS011;8174;43.550;5.206;2022-08-21T03:03:29;2.67;;;0.85;;
16137;SDS011;8174;43.550;5.206;2022-08-21T03:06:00;1.40;;;0.80;;
16137;SDS011;8174;43.550;5.206;2022-08-21T03:08:28;1.60;;;0.85;;
16137;SDS011;8174;43.550;5.206;2022-08-21T03:10:55;1.10;;;0.80;;
16137;SDS011;8174;43.550;5.206;2022-08-21T03:13:26;1.55;;;0.85;;
16137;SDS011;8174;43.550;5.206;2022-08-21T03:15:54;1.33;;;0.93;;
16137;SDS011;8174;43.550;5.206;2022-08-21T03:18:22;1.27;;;0.77;;
16137;SDS011;8174;43.550;5.206;2022-08-21T03:20:52;1.58;;;0.90;;
16137;SDS011;8174;43.550;5.206;2022-08-21T03:23:20;3.75;;;0.90;;
16137;SDS011;8174;43.550;5.206;2022-08-21T03:25:48;1.08;;;0.80;;
16137;SDS011;8174;43.550;5.206;2022-08-21T03:28:20;3.25;;;1.00;;
16137;SDS011;8174;43.550;5.206;2022-08-21T03:30:49;4.65;;;0.80;;
16137;SDS011;8174;43.550;5.206;2022-08-21T03:33:17;4.32;;;1.00;;
16137;SDS011;8174;43.550;5.206;2022-08-21T03:35:46;1.30;;;0.90;;
16137;SDS011;8174;43.550;5.206;2022-08-21T03:38:15;1.30;;;1.00;;
16137;SDS011;8174;43.550;5.206;2022-08-21T03:40:44;3.40;;;1.00;;
16137;SDS011;8174;43.550;5.206;2022-08-21T03:43:12;1.88;;;0.90;;
16137;SDS011;8174;43.550;5.206;2022-08-21T03:45:40;2.05;;;1.00;;
16137;SDS011;8174;43.550;5.206;2022-08-21T03:48:08;3.10;;;1.00;;
16137;SDS011;8174;43.550;5.206;2022-08-21T03:50:37;2.30;;;1.00;;
16137;SDS011;8174;43.550;5.206;2022-08-21T03:53:06;1.85;;;0.85;;
16137;SDS011;8174;43.550;5.206;2022-08-21T03:55:35;2.85;;;0.85;;
16137;SDS011;8174;43.550;5.206;2022-08-21T03:58:03;3.03;;;0.98;;
16137;SDS011;8174;43.550;5.206;2022-08-21T04:00:31;2.72;;;1.00;;
16137;SDS011;8174;43.550;5.206;2022-08-21T04:02:59;2.15;;;1.00;;
16137;SDS011;8174;43.550;5.206;2022-08-21T04:05:26;1.58;;;0.80;;
16137;SDS011;8174;43.550;5.206;2022-08-21T04:07:55;4.15;;;0.98;;
16137;SDS011;8174;43.550;5.206;2022-08-21T04:10:23;2.38;;;0.90;;
16137;SDS011;8174;43.550;5.206;2022-08-21T04:12:52;3.42;;;0.98;;
16137;SDS011;8174;43.550;5.206;2022-08-21T04:15:21;1.83;;;1.00;;
16137;SDS011;8174;43.550;5.206;2022-08-21T04:17:49;1.10;;;1.00;;
16137;SDS011;8174;43.550;5.206;2022-08-21T04:20:17;4.28;;;1.10;;
16137;SDS011;8174;43.550;5.206;2022-08-21T04:22:45;1.92;;;1.10;;
16137;SDS011;8174;43.550;5.206;2022-08-21T04:25:12;2.13;;;0.85;;
16137;SDS011;8174;43.550;5.206;2022-08-21T04:27:40;1.63;;;1.10;;
16137;SDS011;8174;43.550;5.206;2022-08-21T04:30:10;1.33;;;1.00;;
16137;SDS011;8174;43.550;5.206;2022-08-21T04:32:38;2.13;;;1.00;;
16137;SDS011;8174;43.550;5.206;2022-08-21T04:35:07;3.88;;;1.20;;
16137;SDS011;8174;43.550;5.206;2022-08-21T04:37:35;3.38;;;1.10;;
16137;SDS011;8174;43.550;5.206;2022-08-21T04:40:03;3.15;;;1.17;;
16137;SDS011;8174;43.550;5.206;2022-08-21T04:42:32;1.88;;;1.00;;
16137;SDS011;8174;43.550;5.206;2022-08-21T04:45:00;1.60;;;1.00;;
16137;SDS011;8174;43.550;5.206;2022-08-21T04:47:29;5.75;;;1.00;;
16137;SDS011;8174;43.550;5.206;2022-08-21T04:49:57;1.17;;;1.00;;
16137;SDS011;8174;43.550;5.206;2022-08-21T04:52:24;2.63;;;1.00;;
16137;SDS011;8174;43.550;5.206;2022-08-21T04:54:52;2.58;;;1.23;;
16137;SDS011;8174;43.550;5.206;2022-08-21T04:57:19;1.75;;;1.20;;
16137;SDS011;8174;43.550;5.206;2022-08-21T04:59:48;2.88;;;0.98;;
16137;SDS011;8174;43.550;5.206;2022-08-21T05:02:17;2.45;;;1.17;;
16137;SDS011;8174;43.550;5.206;2022-08-21T05:04:48;2.28;;;0.85;;
16137;SDS011;8174;43.550;5.206;2022-08-21T05:07:18;4.90;;;1.23;;
16137;SDS011;8174;43.550;5.206;2022-08-21T05:09:46;1.88;;;1.08;;
16137;SDS011;8174;43.550;5.206;2022-08-21T05:12:13;3.28;;;1.30;;
16137;SDS011;8174;43.550;5.206;2022-08-21T05:14:42;3.38;;;1.20;;
16137;SDS011;8174;43.550;5.206;2022-08-21T05:17:09;2.13;;;1.10;;
16137;SDS011;8174;43.550;5.206;2022-08-21T05:19:37;1.83;;;1.20;;
16137;SDS011;8174;43.550;5.206;2022-08-21T05:22:06;1.83;;;1.20;;
16137;SDS011;8174;43.550;5.206;2022-08-21T05:24:34;2.28;;;1.20;;
16137;SDS011;8174;43.550;5.206;2022-08-21T05:27:03;1.50;;;1.00;;
16137;SDS011;8174;43.550;5.206;2022-08-21T05:29:32;2.72;;;1.10;;
16137;SDS011;8174;43.550;5.206;2022-08-21T05:31:59;3.47;;;1.30;;
16137;SDS011;8174;43.550;5.206;2022-08-21T05:34:27;2.67;;;1.10;;
16137;SDS011;8174;43.550;5.206;2022-08-21T05:36:55;4.05;;;1.30;;
16137;SDS011;8174;43.550;5.206;2022-08-21T05:39:24;4.95;;;1.20;;
16137;SDS011;8174;43.550;5.206;2022-08-21T05:41:52;2.50;;;1.23;;
16137;SDS011;8174;43.550;5.206;2022-08-21T05:44:19;1.75;;;1.20;;
16137;SDS011;8174;43.550;5.206;2022-08-21T05:46:47;2.55;;;1.10;;
16137;SDS011;8174;43.550;5.206;2022-08-21T05:49:14;3.03;;;1.30;;
16137;SDS011;8174;43.550;5.206;2022-08-21T05:51:44;3.00;;;1.40;;
16137;SDS011;8174;43.550;5.206;2022-08-21T05:54:11;3.38;;;1.15;;
16137;SDS011;8174;43.550;5.206;2022-08-21T05:56:40;2.90;;;1.13;;
16137;SDS011;8174;43.550;5.206;2022-08-21T05:59:10;2.83;;;1.00;;
16137;SDS011;8174;43.550;5.206;2022-08-21T06:01:38;2.30;;;1.20;;
16137;SDS011;8174;43.550;5.206;2022-08-21T06:04:06;3.60;;;1.10;;
16137;SDS011;8174;43.550;5.206;2022-08-21T06:06:34;1.85;;;0.98;;
16137;SDS011;8174;43.550;5.206;2022-08-21T06:09:02;2.08;;;1.10;;
16137;SDS011;8174;43.550;5.206;2022-08-21T06:11:30;3.13;;;1.00;;
16137;SDS011;8174;43.550;5.206;2022-08-21T06:14:00;3.70;;;0.88;;
16137;SDS011;8174;43.550;5.206;2022-08-21T06:16:27;2.35;;;1.00;;
16137;SDS011;8174;43.550;5.206;2022-08-21T06:18:55;2.55;;;1.10;;
16137;SDS011;8174;43.550;5.206;2022-08-21T06:21:23;4.05;;;0.88;;
16137;SDS011;8174;43.550;5.206;2022-08-21T06:23:50;3.20;;;1.10;;
16137;SDS011;8174;43.550;5.206;2022-08-21T06:26:18;1.85;;;0.85;;
16137;SDS011;8174;43.550;5.206;2022-08-21T06:28:46;2.13;;;1.17;;
16137;SDS011;8174;43.550;5.206;2022-08-21T06:31:15;4.10;;;1.00;;
16137;SDS011;8174;43.550;5.206;2022-08-21T06:33:43;2.10;;;0.98;;
16137;SDS011;8174;43.550;5.206;2022-08-21T06:36:11;3.97;;;0.90;;
16137;SDS011;8174;43.550;5.206;2022-08-21T06:38:38;6.18;;;0.93;;
16137;SDS011;8174;43.550;5.206;2022-08-21T06:41:06;4.03;;;1.00;;
16137;SDS011;8174;43.550;5.206;2022-08-21T06:43:34;2.80;;;0.93;;
16137;SDS011;8174;43.550;5.206;2022-08-21T06:46:02;4.22;;;1.00;;
16137;SDS011;8174;43.550;5.206;2022-08-21T06:48:31;2.20;;;0.80;;
16137;SDS011;8174;43.550;5.206;2022-08-21T06:50:59;1.60;;;0.90;;
16137;SDS011;8174;43.550;5.206;2022-08-21T06:53:27;2.53;;;0.98;;
16137;SDS011;8174;43.550;5.206;2022-08-21T06:55:55;3.33;;;1.15;;
16137;SDS011;8174;43.550;5.206;2022-08-21T06:58:23;1.85;;;0.80;;
16137;SDS011;8174;43.550;5.206;2022-08-21T07:00:51;2.42;;;1.05;;
16137;SDS011;8174;43.550;5.206;2022-08-21T07:03:19;1.42;;;1.00;;
16137;SDS011;8174;43.550;5.206;2022-08-21T07:05:50;1.45;;;0.80;;
16137;SDS011;8174;43.550;5.206;2022-08-21T07:08:17;3.63;;;1.15;;
16137;SDS011;8174;43.550;5.206;2022-08-21T07:10:45;2.25;;;1.10;;
16137;SDS011;8174;43.550;5.206;2022-08-21T07:13:13;3.95;;;1.10;;
16137;SDS011;8174;43.550;5.206;2022-08-21T07:15:41;1.67;;;0.85;;
16137;SDS011;8174;43.550;5.206;2022-08-21T07:18:10;1.90;;;0.90;;
16137;SDS011;8174;43.550;5.206;2022-08-21T07:20:38;1.65;;;1.00;;
16137;SDS011;8174;43.550;5.206;2022-08-21T07:23:09;2.00;;;0.98;;
16137;SDS011;8174;43.550;5.206;2022-08-21T07:25:37;1.67;;;1.10;;
16137;SDS011;8174;43.550;5.206;2022-08-21T07:28:05;2.40;;;1.10;;
16137;SDS011;8174;43.550;5.206;2022-08-21T07:30:32;4.10;;;1.50;;
16137;SDS011;8174;43.550;5.206;2022-08-21T07:33:00;2.75;;;0.98;;
16137;SDS011;8174;43.550;5.206;2022-08-21T07:35:28;2.63;;;1.20;;
16137;SDS011;8174;43.550;5.206;2022-08-21T07:37:56;3.15;;;1.02;;
16137;SDS011;8174;43.550;5.206;2022-08-21T07:40:25;3.33;;;1.08;;
16137;SDS011;8174;43.550;5.206;2022-08-21T07:42:53;3.28;;;1.15;;
16137;SDS011;8174;43.550;5.206;2022-08-21T07:45:21;1.77;;;1.20;;
16137;SDS011;8174;43.550;5.206;2022-08-21T07:47:49;4.47;;;1.10;;
16137;SDS011;8174;43.550;5.206;2022-08-21T07:50:17;2.53;;;1.20;;
16137;SDS011;8174;43.550;5.206;2022-08-21T07:52:45;2.67;;;1.02;;
16137;SDS011;8174;43.550;5.206;2022-08-21T07:55:14;3.15;;;1.30;;
16137;SDS011;8174;43.550;5.206;2022-08-21T07:57:44;2.22;;;1.15;;
16137;SDS011;8174;43.550;5.206;2022-08-21T08:00:13;4.93;;;1.10;;
16137;SDS011;8174;43.550;5.206;2022-08-21T08:02:43;3.63;;;1.10;;
16137;SDS011;8174;43.550;5.206;2022-08-21T08:05:12;2.97;;;1.05;;
16137;SDS011;8174;43.550;5.206;2022-08-21T08:07:41;2.63;;;1.10;;
16137;SDS011;8174;43.550;5.206;2022-08-21T08:10:09;3.58;;;1.20;;
16137;SDS011;8174;43.550;5.206;2022-08-21T08:12:38;4.78;;;1.52;;
16137;SDS011;8174;43.550;5.206;2022-08-21T08:15:08;3.33;;;1.20;;
16137;SDS011;8174;43.550;5.206;2022-08-21T08:17:36;4.28;;;1.40;;
16137;SDS011;8174;43.550;5.206;2022-08-21T08:20:05;3.20;;;1.20;;
16137;SDS011;8174;43.550;5.206;2022-08-21T08:22:33;2.75;;;1.00;;
16137;SDS011;8174;43.550;5.206;2022-08-21T08:25:01;3.60;;;1.10;;
16137;SDS011;8174;43.550;5.206;2022-08-21T08:27:29;3.35;;;1.67;;
16137;SDS011;8174;43.550;5.206;2022-08-21T08:29:57;3.85;;;1.48;;
16137;SDS011;8174;43.550;5.206;2022-08-21T08:32:26;3.83;;;1.73;;
16137;SDS011;8174;43.550;5.206;2022-08-21T08:34:54;3.13;;;1.52;;
16137;SDS011;8174;43.550;5.206;2022-08-21T08:37:21;1.90;;;1.00;;
16137;SDS011;8174;43.550;5.206;2022-08-21T08:39:49;4.82;;;1.20;;
16137;SDS011;8174;43.550;5.206;2022-08-21T08:42:18;3.13;;;1.10;;
16137;SDS011;8174;43.550;5.206;2022-08-21T08:44:47;4.75;;;1.35;;
16137;SDS011;8174;43.550;5.206;2022-08-21T08:47:17;1.90;;;1.00;;
16137;SDS011;8174;43.550;5.206;2022-08-21T08:49:49;3.13;;;1.30;;
16137;SDS011;8174;43.550;5.206;2022-08-21T08:52:20;2.13;;;1.40;;
16137;SDS011;8174;43.550;5.206;2022-08-21T08:54:51;4.68;;;1.10;;
16137;SDS011;8174;43.550;5.206;2022-08-21T08:57:23;5.40;;;1.27;;
16137;SDS011;8174;43.550;5.206;2022-08-21T08:59:53;4.03;;;1.00;;
16137;SDS011;8174;43.550;5.206;2022-08-21T09:02:21;1.60;;;1.05;;
16137;SDS011;8174;43.550;5.206;2022-08-21T09:04:51;3.00;;;1.20;;
16137;SDS011;8174;43.550;5.206;2022-08-21T09:07:20;1.90;;;1.00;;
16137;SDS011;8174;43.550;5.206;2022-08-21T09:09:54;4.28;;;1.25;;
16137;SDS011;8174;43.550;5.206;2022-08-21T09:12:29;14.60;;;1.63;;
16137;SDS011;8174;43.550;5.206;2022-08-21T09:15:02;3.05;;;1.10;;
16137;SDS011;8174;43.550;5.206;2022-08-21T09:17:39;4.82;;;1.27;;
16137;SDS011;8174;43.550;5.206;2022-08-21T09:20:17;5.85;;;1.50;;
16137;SDS011;8174;43.550;5.206;2022-08-21T09:22:49;3.30;;;1.23;;
16137;SDS011;8174;43.550;5.206;2022-08-21T09:25:22;2.83;;;1.27;;
16137;SDS011;8174;43.550;5.206;2022-08-21T09:27:51;3.90;;;1.30;;
16137;SDS011;8174;43.550;5.206;2022-08-21T09:30:19;5.40;;;1.13;;
16137;SDS011;8174;43.550;5.206;2022-08-21T09:32:48;4.45;;;1.25;;
16137;SDS011;8174;43.550;5.206;2022-08-21T09:35:18;2.03;;;1.15;;
16137;SDS011;8174;43.550;5.206;2022-08-21T09:37:47;4.05;;;1.30;;
16137;SDS011;8174;43.550;5.206;2022-08-21T09:40:18;3.35;;;1.30;;
16137;SDS011;8174;43.550;5.206;2022-08-21T09:42:53;3.88;;;1.67;;
16137;SDS011;8174;43.550;5.206;2022-08-21T09:45:21;2.17;;;1.15;;
16137;SDS011;8174;43.550;5.206;2022-08-21T09:47:48;2.40;;;1.10;;
16137;SDS011;8174;43.550;5.206;2022-08-21T09:50:19;11.52;;;1.88;;
16137;SDS011;8174;43.550;5.206;2022-08-21T09:52:48;3.05;;;1.27;;
16137;SDS011;8174;43.550;5.206;2022-08-21T09:55:18;3.15;;;1.10;;
16137;SDS011;8174;43.550;5.206;2022-08-21T09:58:04;4.20;;;1.20;;
16137;SDS011;8174;43.550;5.206;2022-08-21T10:00:32;4.38;;;1.20;;
16137;SDS011;8174;43.550;5.206;2022-08-21T10:03:10;5.50;;;1.13;;
16137;SDS011;8174;43.550;5.206;2022-08-21T10:05:49;2.42;;;1.00;;
16137;SDS011;8174;43.550;5.206;2022-08-21T10:08:18;2.33;;;1.20;;
16137;SDS011;8174;43.550;5.206;2022-08-21T10:10:45;3.22;;;1.15;;
16137;SDS011;8174;43.550;5.206;2022-08-21T10:13:19;2.42;;;1.10;;
16137;SDS011;8174;43.550;5.206;2022-08-21T10:15:50;2.65;;;1.23;;
16137;SDS011;8174;43.550;5.206;2022-08-21T10:18:20;4.72;;;1.20;;
16137;SDS011;8174;43.550;5.206;2022-08-21T10:20:50;1.60;;;0.93;;
16137;SDS011;8174;43.550;5.206;2022-08-21T10:23:24;1.90;;;1.10;;
16137;SDS011;8174;43.550;5.206;2022-08-21T10:25:55;3.03;;;1.52;;
16137;SDS011;8174;43.550;5.206;2022-08-21T10:28:26;1.80;;;1.10;;
16137;SDS011;8174;43.550;5.206;2022-08-21T10:30:57;3.08;;;0.98;;
16137;SDS011;8174;43.550;5.206;2022-08-21T10:33:28;2.72;;;1.02;;
16137;SDS011;8174;43.550;5.206;2022-08-21T10:36:01;1.70;;;1.13;;
16137;SDS011;8174;43.550;5.206;2022-08-21T10:38:37;5.10;;;1.02;;
16137;SDS011;8174;43.550;5.206;2022-08-21T10:41:09;2.70;;;1.30;;
16137;SDS011;8174;43.550;5.206;2022-08-21T10:43:42;1.67;;;1.08;;
16137;SDS011;8174;43.550;5.206;2022-08-21T10:46:14;2.42;;;1.10;;
16137;SDS011;8174;43.550;5.206;2022-08-21T10:48:46;1.75;;;0.98;;
16137;SDS011;8174;43.550;5.206;2022-08-21T10:51:18;2.45;;;1.08;;
16137;SDS011;8174;43.550;5.206;2022-08-21T10:53:51;2.58;;;0.90;;
16137;SDS011;8174;43.550;5.206;2022-08-21T10:56:23;4.05;;;1.30;;
16137;SDS011;8174;43.550;5.206;2022-08-21T10:58:57;2.00;;;1.17;;
16137;SDS011;8174;43.550;5.206;2022-08-21T11:01:27;4.13;;;1.30;;
16137;SDS011;8174;43.550;5.206;2022-08-21T11:04:01;2.38;;;1.10;;
16137;SDS011;8174;43.550;5.206;2022-08-21T11:06:32;4.45;;;2.03;;
16137;SDS011;8174;43.550;5.206;2022-08-21T11:09:04;3.88;;;1.30;;
16137;SDS011;8174;43.550;5.206;2022-08-21T11:11:34;2.13;;;1.10;;
16137;SDS011;8174;43.550;5.206;2022-08-21T11:14:04;2.40;;;1.40;;
16137;SDS011;8174;43.550;5.206;2022-08-21T11:16:36;4.07;;;1.30;;
16137;SDS011;8174;43.550;5.206;2022-08-21T11:19:07;2.10;;;1.10;;
16137;SDS011;8174;43.550;5.206;2022-08-21T11:21:39;1.90;;;1.10;;
16137;SDS011;8174;43.550;5.206;2022-08-21T11:24:22;2.35;;;1.27;;
16137;SDS011;8174;43.550;5.206;2022-08-21T11:26:52;1.85;;;1.10;;
16137;SDS011;8174;43.550;5.206;2022-08-21T11:29:27;2.42;;;0.88;;
16137;SDS011;8174;43.550;5.206;2022-08-21T11:32:01;2.17;;;1.10;;
16137;SDS011;8174;43.550;5.206;2022-08-21T11:34:38;2.92;;;1.10;;
16137;SDS011;8174;43.550;5.206;2022-08-21T11:37:11;2.17;;;1.10;;
16137;SDS011;8174;43.550;5.206;2022-08-21T11:39:44;2.53;;;1.45;;
16137;SDS011;8174;43.550;5.206;2022-08-21T11:42:16;1.98;;;1.40;;
16137;SDS011;8174;43.550;5.206;2022-08-21T11:44:49;2.30;;;1.10;;
16137;SDS011;8174;43.550;5.206;2022-08-21T11:47:20;2.58;;;1.50;;
16137;SDS011;8174;43.550;5.206;2022-08-21T11:49:54;1.83;;;1.27;;
16137;SDS011;8174;43.550;5.206;2022-08-21T11:52:25;2.33;;;1.02;;
16137;SDS011;8174;43.550;5.206;2022-08-21T11:54:57;3.65;;;1.10;;
16137;SDS011;8174;43.550;5.206;2022-08-21T11:57:25;2.75;;;1.17;;
16137;SDS011;8174;43.550;5.206;2022-08-21T11:59:58;1.60;;;1.08;;
16137;SDS011;8174;43.550;5.206;2022-08-21T12:02:28;5.07;;;1.05;;
16137;SDS011;8174;43.550;5.206;2022-08-21T12:04:57;2.55;;;1.05;;
16137;SDS011;8174;43.550;5.206;2022-08-21T12:07:32;2.20;;;0.93;;
16137;SDS011;8174;43.550;5.206;2022-08-21T12:10:01;2.53;;;1.00;;
16137;SDS011;8174;43.550;5.206;2022-08-21T12:12:30;2.33;;;1.20;;
16137;SDS011;8174;43.550;5.206;2022-08-21T12:15:13;4.60;;;1.10;;
16137;SDS011;8174;43.550;5.206;2022-08-21T12:17:50;1.75;;;1.00;;
16137;SDS011;8174;43.550;5.206;2022-08-21T12:20:22;2.70;;;0.93;;
16137;SDS011;8174;43.550;5.206;2022-08-21T12:22:54;1.80;;;0.95;;
16137;SDS011;8174;43.550;5.206;2022-08-21T12:25:22;1.95;;;1.05;;
16137;SDS011;8174;43.550;5.206;2022-08-21T12:27:51;3.20;;;0.93;;
16137;SDS011;8174;43.550;5.206;2022-08-21T12:30:21;2.50;;;0.90;;
16137;SDS011;8174;43.550;5.206;2022-08-21T12:32:55;2.40;;;1.00;;
16137;SDS011;8174;43.550;5.206;2022-08-21T12:35:24;2.30;;;1.17;;
16137;SDS011;8174;43.550;5.206;2022-08-21T12:37:56;1.77;;;1.00;;
16137;SDS011;8174;43.550;5.206;2022-08-21T12:40:25;1.90;;;1.08;;
16137;SDS011;8174;43.550;5.206;2022-08-21T12:42:54;2.00;;;1.00;;
16137;SDS011;8174;43.550;5.206;2022-08-21T12:45:23;3.25;;;1.00;;
16137;SDS011;8174;43.550;5.206;2022-08-21T12:47:54;1.67;;;0.98;;
16137;SDS011;8174;43.550;5.206;2022-08-21T12:50:26;2.15;;;0.88;;
16137;SDS011;8174;43.550;5.206;2022-08-21T12:52:59;1.30;;;0.90;;
16137;SDS011;8174;43.550;5.206;2022-08-21T12:55:29;1.65;;;0.93;;
16137;SDS011;8174;43.550;5.206;2022-08-21T12:57:57;2.40;;;1.13;;
16137;SDS011;8174;43.550;5.206;2022-08-21T13:00:26;3.97;;;0.90;;
16137;SDS011;8174;43.550;5.206;2022-08-21T13:02:54;1.65;;;0.90;;
16137;SDS011;8174;43.550;5.206;2022-08-21T13:05:25;2.65;;;1.00;;
16137;SDS011;8174;43.550;5.206;2022-08-21T13:07:54;3.42;;;0.93;;
16137;SDS011;8174;43.550;5.206;2022-08-21T13:10:26;1.98;;;1.00;;
16137;SDS011;8174;43.550;5.206;2022-08-21T13:12:55;1.27;;;0.70;;
16137;SDS011;8174;43.550;5.206;2022-08-21T13:15:24;2.20;;;1.10;;
16137;SDS011;8174;43.550;5.206;2022-08-21T13:17:52;4.13;;;1.00;;
16137;SDS011;8174;43.550;5.206;2022-08-21T13:20:21;2.65;;;1.10;;
16137;SDS011;8174;43.550;5.206;2022-08-21T13:22:49;2.10;;;1.00;;
16137;SDS011;8174;43.550;5.206;2022-08-21T13:25:19;1.60;;;1.00;;
16137;SDS011;8174;43.550;5.206;2022-08-21T13:27:58;2.97;;;0.90;;
16137;SDS011;8174;43.550;5.206;2022-08-21T13:30:26;4.93;;;1.02;;
16137;SDS011;8174;43.550;5.206;2022-08-21T13:32:55;1.83;;;0.85;;
16137;SDS011;8174;43.550;5.206;2022-08-21T13:35:24;5.05;;;0.82;;
16137;SDS011;8174;43.550;5.206;2022-08-21T13:37:52;1.77;;;0.75;;
16137;SDS011;8174;43.550;5.206;2022-08-21T13:40:23;1.30;;;0.80;;
16137;SDS011;8174;43.550;5.206;2022-08-21T13:42:51;3.17;;;0.90;;
16137;SDS011;8174;43.550;5.206;2022-08-21T13:45:24;2.10;;;1.10;;
16137;SDS011;8174;43.550;5.206;2022-08-21T13:47:53;4.82;;;0.73;;
16137;SDS011;8174;43.550;5.206;2022-08-21T13:50:22;1.70;;;0.80;;
16137;SDS011;8174;43.550;5.206;2022-08-21T13:53:00;4.20;;;1.08;;
16137;SDS011;8174;43.550;5.206;2022-08-21T13:55:35;2.03;;;0.80;;
16137;SDS011;8174;43.550;5.206;2022-08-21T13:58:03;0.80;;;0.70;;
16137;SDS011;8174;43.550;5.206;2022-08-21T14:00:34;2.65;;;1.00;;
16137;SDS011;8174;43.550;5.206;2022-08-21T14:03:04;2.08;;;0.88;;
16137;SDS011;8174;43.550;5.206;2022-08-21T14:05:34;1.02;;;0.70;;
16137;SDS011;8174;43.550;5.206;2022-08-21T14:08:04;2.92;;;0.90;;
16137;SDS011;8174;43.550;5.206;2022-08-21T14:10:34;1.50;;;0.63;;
16137;SDS011;8174;43.550;5.206;2022-08-21T14:13:03;2.55;;;0.80;;
16137;SDS011;8174;43.550;5.206;2022-08-21T14:15:33;2.00;;;0.75;;
16137;SDS011;8174;43.550;5.206;2022-08-21T14:18:08;1.38;;;0.88;;
16137;SDS011;8174;43.550;5.206;2022-08-21T14:20:36;2.25;;;0.90;;
16137;SDS011;8174;43.550;5.206;2022-08-21T14:23:04;2.00;;;0.80;;
16137;SDS011;8174;43.550;5.206;2022-08-21T14:25:36;1.95;;;0.80;;
16137;SDS011;8174;43.550;5.206;2022-08-21T14:28:07;4.03;;;0.90;;
16137;SDS011;8174;43.550;5.206;2022-08-21T14:30:39;2.33;;;0.70;;
16137;SDS011;8174;43.550;5.206;2022-08-21T14:33:08;1.67;;;0.80;;
16137;SDS011;8174;43.550;5.206;2022-08-21T14:35:37;2.42;;;0.80;;
16137;SDS011;8174;43.550;5.206;2022-08-21T14:38:11;2.50;;;0.88;;
16137;SDS011;8174;43.550;5.206;2022-08-21T14:40:39;2.90;;;0.82;;
16137;SDS011;8174;43.550;5.206;2022-08-21T14:43:07;1.50;;;0.88;;
16137;SDS011;8174;43.550;5.206;2022-08-21T14:45:35;2.33;;;0.80;;
16137;SDS011;8174;43.550;5.206;2022-08-21T14:48:07;1.70;;;1.10;;
16137;SDS011;8174;43.550;5.206;2022-08-21T14:50:35;5.53;;;1.10;;
16137;SDS011;8174;43.550;5.206;2022-08-21T14:53:02;2.03;;;0.90;;
16137;SDS011;8174;43.550;5.206;2022-08-21T14:55:30;2.58;;;1.08;;
16137;SDS011;8174;43.550;5.206;2022-08-21T14:58:19;2.65;;;1.23;;
16137;SDS011;8174;43.550;5.206;2022-08-21T15:00:48;2.25;;;1.00;;
16137;SDS011;8174;43.550;5.206;2022-08-21T15:03:17;1.40;;;1.00;;
16137;SDS011;8174;43.550;5.206;2022-08-21T15:05:46;3.40;;;1.10;;
16137;SDS011;8174;43.550;5.206;2022-08-21T15:08:15;3.05;;;1.30;;
16137;SDS011;8174;43.550;5.206;2022-08-21T15:10:42;1.35;;;1.00;;
16137;SDS011;8174;43.550;5.206;2022-08-21T15:13:10;3.58;;;0.95;;